Time;durP1;ratioP1;P1;durP2;ratioP2;P2;SDS_P1;SDS_P2;PMS_P1;PMS_P2;Temp;Humidity;BMP_temperature;BMP_pressure;BME280_temperature;BME280_humidity;BME280_pressure;Samples;Min_cycle;Max_cycle;Signal;HPM_P1;HPM_P2
2022/06/10 00:00:03;;;;;;;2.05;1.45;;;17.60;61.20;;;;;;6114202;23;95656;-69
2022/06/10 00:02:35;;;;;;;2.17;1.13;;;17.40;70.00;;;;;;6078523;23;95636;-68
2022/06/10 00:05:07;;;;;;;3.38;1.90;;;17.40;70.10;;;;;;6117244;23;96035;-68
2022/06/10 00:07:39;;;;;;;1.27;1.17;;;17.40;70.00;;;;;;6114168;23;95773;-68
2022/06/10 00:10:14;;;;;;;1.60;1.15;;;17.40;70.00;;;;;;6113991;23;95612;-67
2022/06/10 00:12:48;;;;;;;2.97;1.50;;;17.40;70.00;;;;;;6112947;23;96044;-68
2022/06/10 00:15:20;;;;;;;1.88;1.23;;;17.40;70.10;;;;;;6105121;23;95726;-68
2022/06/10 00:17:53;;;;;;;1.55;1.35;;;17.40;70.10;;;;;;6111381;23;95150;-69
2022/06/10 00:20:30;;;;;;;2.25;1.38;;;17.40;70.10;;;;;;6115726;23;95979;-68
2022/06/10 00:23:02;;;;;;;2.33;1.48;;;17.40;70.10;;;;;;6113352;23;95770;-68
2022/06/10 00:25:32;;;;;;;1.58;1.15;;;17.50;70.40;;;;;;6086940;23;95977;-68
2022/06/10 00:28:05;;;;;;;2.53;1.08;;;17.50;70.40;;;;;;6086100;23;95515;-68
2022/06/10 00:30:38;;;;;;;1.83;1.10;;;17.50;70.30;;;;;;6104729;23;97838;-68
2022/06/10 00:33:10;;;;;;;1.67;1.40;;;17.50;70.40;;;;;;6112102;23;102013;-68
2022/06/10 00:35:43;;;;;;;1.70;1.50;;;17.50;70.50;;;;;;6086993;23;95866;-67
2022/06/10 00:38:15;;;;;;;2.80;1.40;;;17.50;71.00;;;;;;6113768;23;96162;-69
2022/06/10 00:40:54;;;;;;;1.05;0.95;;;17.50;71.10;;;;;;6113760;23;96005;-68
2022/06/10 00:43:29;;;;;;;1.70;1.40;;;17.60;71.20;;;;;;6112432;23;96356;-68
2022/06/10 00:46:11;;;;;;;1.08;0.98;;;17.60;71.30;;;;;;6104329;23;95597;-69
2022/06/10 00:49:07;;;;;;;1.27;1.15;;;17.60;71.30;;;;;;6114581;23;95119;-68
2022/06/10 00:51:51;;;;;;;2.97;1.52;;;17.70;71.20;;;;;;6088881;23;95532;-68
2022/06/10 00:54:29;;;;;;;1.35;1.02;;;17.80;67.00;;;;;;6087838;23;96081;-68
2022/06/10 00:57:25;;;;;;;2.63;1.10;;;17.80;71.20;;;;;;6087979;23;97050;-68
2022/06/10 01:00:12;;;;;;;2.50;1.30;;;17.80;71.00;;;;;;6086127;23;95712;-68
2022/06/10 01:02:44;;;;;;;1.85;1.30;;;17.80;71.60;;;;;;6078353;23;95946;-67
2022/06/10 01:05:23;;;;;;;1.98;1.52;;;17.80;70.90;;;;;;6111731;23;95785;-68
2022/06/10 01:08:16;;;;;;;3.78;1.48;;;17.90;70.80;;;;;;6085776;23;95622;-68
2022/06/10 01:10:58;;;;;;;3.65;1.45;;;18.00;70.90;;;;;;6087666;23;95200;-66
2022/06/10 01:13:39;;;;;;;2.00;1.42;;;18.00;70.80;;;;;;6114366;23;95763;-67
2022/06/10 01:16:39;;;;;;;1.90;1.50;;;18.00;70.60;;;;;;6078088;23;96261;-69
2022/06/10 01:19:22;;;;;;;1.55;1.40;;;18.00;70.50;;;;;;6112811;23;95797;-67
2022/06/10 01:22:21;;;;;;;1.83;1.40;;;18.10;70.60;;;;;;6113484;23;95983;-68
2022/06/10 01:25:12;;;;;;;1.95;1.50;;;18.10;70.40;;;;;;6114642;23;95603;-68
2022/06/10 01:27:59;;;;;;;1.50;1.20;;;18.10;70.40;;;;;;6113774;23;95857;-68
2022/06/10 01:31:07;;;;;;;3.40;1.73;;;18.10;70.10;;;;;;6078740;22;95616;-67
2022/06/10 01:33:49;;;;;;;2.17;1.60;;;18.20;70.10;;;;;;6111794;23;95779;-67
2022/06/10 01:36:25;;;;;;;;;;;18.20;70.10;;;;;;6088018;23;95845;-67
2022/06/10 01:39:01;;;;;;;3.92;2.05;;;18.20;69.90;;;;;;6114764;23;96343;-67
2022/06/10 01:42:02;;;;;;;4.10;2.25;;;18.20;69.80;;;;;;6112331;23;96105;-66
2022/06/10 01:44:41;;;;;;;2.80;1.75;;;18.30;69.90;;;;;;6087296;23;95428;-68
2022/06/10 01:47:33;;;;;;;2.53;1.67;;;18.30;69.90;;;;;;6107221;23;95437;-69
2022/06/10 01:50:24;;;;;;;3.55;2.05;;;18.30;69.90;;;;;;6070443;23;96675;-67
2022/06/10 01:53:05;;;;;;;4.95;1.52;;;18.30;69.80;;;;;;6124126;23;95434;-67
2022/06/10 01:55:50;;;;;;;2.95;2.05;;;18.40;69.70;;;;;;6130691;23;95454;-69
2022/06/10 01:58:41;;;;;;;4.75;2.05;;;18.40;69.60;;;;;;6131500;23;95134;-69
2022/06/10 02:01:24;;;;;;;;;;;18.40;69.50;;;;;;6122024;23;95906;-68
2022/06/10 02:04:01;;;;;;;4.75;2.30;;;18.40;69.20;;;;;;6133984;23;95243;-68
2022/06/10 02:06:46;;;;;;;2.97;1.73;;;18.40;69.20;;;;;;6081173;23;95262;-66
2022/06/10 02:09:22;;;;;;;3.08;1.65;;;18.40;69.30;;;;;;6088544;23;95236;-67
2022/06/10 02:12:06;;;;;;;2.90;1.83;;;18.40;69.30;;;;;;6088372;23;96331;-67
2022/06/10 02:15:03;;;;;;;3.42;2.17;;;18.40;69.20;;;;;;6113951;23;95740;-67
2022/06/10 02:17:43;;;;;;;2.88;1.63;;;18.50;69.30;;;;;;6104771;23;97011;-67
2022/06/10 02:20:20;;;;;;;3.20;1.83;;;18.50;69.30;;;;;;6114345;23;95698;-68
2022/06/10 02:22:56;;;;;;;3.65;1.92;;;18.50;69.20;;;;;;6087379;23;95747;-67
2022/06/10 02:25:36;;;;;;;1.95;1.52;;;18.50;69.10;;;;;;6113454;23;95608;-68
2022/06/10 02:28:12;;;;;;;1.45;1.35;;;18.50;69.10;;;;;;6114673;23;95677;-68
2022/06/10 02:30:56;;;;;;;2.55;1.60;;;18.50;69.70;;;;;;6054700;23;95715;-66
2022/06/10 02:33:31;;;;;;;3.45;1.77;;;18.60;69.10;;;;;;6113453;23;95756;-66
2022/06/10 02:36:18;;;;;;;2.45;1.38;;;18.60;64.90;;;;;;6113206;23;95598;-65
2022/06/10 02:38:56;;;;;;;3.05;1.63;;;18.60;69.00;;;;;;6113639;23;95809;-67
2022/06/10 02:41:32;;;;;;;2.60;1.70;;;18.60;60.80;;;;;;6113759;23;95568;-66
2022/06/10 02:44:22;;;;;;;2.35;1.60;;;18.60;69.00;;;;;;6087298;23;98186;-66
2022/06/10 02:47:23;;;;;;;3.00;1.42;;;18.60;69.00;;;;;;6105223;23;96662;-67
2022/06/10 02:49:57;;;;;;;3.50;1.35;;;18.70;69.30;;;;;;6089738;23;95689;-67
2022/06/10 02:52:35;;;;;;;1.85;1.27;;;18.70;69.30;;;;;;6089285;23;95750;-68
2022/06/10 02:55:12;;;;;;;2.55;1.13;;;18.70;69.40;;;;;;6087455;23;96431;-66
2022/06/10 03:01:13;;;;;;;2.20;1.52;;;18.80;69.40;;;;;;6078004;22;98646;-68
2022/06/10 03:03:57;;;;;;;1.85;1.33;;;18.90;68.70;;;;;;6090916;22;95473;-68
2022/06/10 03:06:40;;;;;;;2.25;1.50;;;18.90;68.50;;;;;;6143425;22;95854;-68
2022/06/10 03:09:25;;;;;;;3.03;1.40;;;18.90;68.50;;;;;;6116814;22;95702;-68
2022/06/10 03:12:30;;;;;;;3.55;1.50;;;18.90;68.40;;;;;;6144675;22;95103;-69
2022/06/10 03:15:13;;;;;;;3.67;1.90;;;18.90;68.00;;;;;;6116900;22;96283;-68
2022/06/10 03:17:49;;;;;;;4.18;2.00;;;18.90;68.00;;;;;;6141929;22;96367;-68
2022/06/10 03:20:23;;;;;;;6.75;1.88;;;18.80;67.90;;;;;;6116009;22;95927;-68
2022/06/10 03:23:14;;;;;;;2.90;2.03;;;18.80;67.80;;;;;;6143450;22;95601;-68
2022/06/10 03:26:04;;;;;;;3.33;2.63;;;18.70;67.60;;;;;;6142742;22;95592;-68
2022/06/10 03:28:56;;;;;;;3.90;2.85;;;18.70;67.90;;;;;;6142387;22;95883;-68
2022/06/10 03:31:40;;;;;;;4.63;3.15;;;18.60;67.90;;;;;;6105464;22;98012;-67
2022/06/10 03:34:41;;;;;;;4.80;2.72;;;18.70;68.30;;;;;;6143725;22;96032;-68
2022/06/10 03:37:14;;;;;;;5.30;3.05;;;18.80;68.20;;;;;;6128630;22;95829;-67
2022/06/10 03:39:57;;;;;;;2.95;2.60;;;18.90;68.50;;;;;;6089481;22;96113;-66
2022/06/10 03:42:28;;;;;;;3.92;2.90;;;19.00;68.70;;;;;;6092340;22;95594;-65
2022/06/10 03:45:00;;;;;;;2.97;2.55;;;19.20;68.90;;;;;;6144234;22;95590;-66
2022/06/10 03:47:34;;;;;;;3.22;2.45;;;19.30;68.80;;;;;;6135873;22;95679;-67
2022/06/10 03:50:14;;;;;;;3.85;2.47;;;19.40;68.70;;;;;;6145031;22;95691;-66
2022/06/10 03:52:47;;;;;;;2.97;2.58;;;19.50;68.70;;;;;;6117731;22;95531;-67
2022/06/10 03:55:21;;;;;;;3.35;2.50;;;19.70;68.60;;;;;;6118786;22;96246;-66
2022/06/10 03:57:53;;;;;;;6.70;2.58;;;19.70;68.40;;;;;;6117025;22;95255;-66
2022/06/10 04:00:30;;;;;;;3.28;2.40;;;19.80;68.40;;;;;;6108379;22;95837;-68
2022/06/10 04:03:01;;;;;;;2.22;1.83;;;19.90;68.30;;;;;;6092507;22;98284;-68
2022/06/10 04:05:32;;;;;;;2.55;1.92;;;20.00;68.30;;;;;;6116608;22;95362;-67
2022/06/10 04:08:23;;;;;;;;;;;20.00;68.10;;;;;;6114588;23;96124;-68
2022/06/10 04:10:56;;;;;;;2.90;2.47;;;20.20;68.10;;;;;;6088298;23;96375;-67
2022/06/10 04:13:29;;;;;;;2.50;2.15;;;20.20;67.90;;;;;;6110651;23;95348;-67
2022/06/10 04:16:02;;;;;;;3.10;1.80;;;20.30;68.00;;;;;;6076320;23;95352;-67
2022/06/10 04:18:37;;;;;;;3.08;2.08;;;20.30;67.70;;;;;;6111573;23;95222;-68
2022/06/10 04:21:11;;;;;;;1.75;1.38;;;20.40;63.70;;;;;;6111301;23;95800;-65
2022/06/10 04:23:42;;;;;;;2.33;2.13;;;20.50;67.60;;;;;;6111150;23;95640;-66
2022/06/10 04:26:12;;;;;;;2.03;1.83;;;20.50;67.50;;;;;;6111763;23;95601;-66
2022/06/10 04:28:44;;;;;;;3.30;1.90;;;20.50;67.40;;;;;;6112182;23;95558;-66
2022/06/10 04:31:19;;;;;;;1.80;1.70;;;20.60;67.50;;;;;;6102301;23;96493;-66
2022/06/10 04:33:52;;;;;;;3.17;1.90;;;20.70;67.50;;;;;;6084908;23;96245;-68
2022/06/10 04:36:25;;;;;;;2.22;1.90;;;20.70;67.40;;;;;;6112644;23;96033;-66
2022/06/10 04:38:56;;;;;;;2.53;1.92;;;20.70;67.40;;;;;;6113143;23;95724;-66
2022/06/10 04:41:26;;;;;;;2.77;1.90;;;20.90;59.20;;;;;;6111443;23;95632;-67
2022/06/10 04:43:57;;;;;;;2.97;1.73;;;20.70;67.40;;;;;;6112892;23;95375;-67
2022/06/10 04:46:35;;;;;;;2.15;1.55;;;20.70;67.40;;;;;;6109580;22;95964;-56
2022/06/10 04:49:07;;;;;;;3.17;1.90;;;20.70;67.50;;;;;;6114194;23;95446;-47
2022/06/10 04:51:38;;;;;;;2.22;1.58;;;20.70;67.40;;;;;;6113552;23;95957;-47
2022/06/10 04:54:11;;;;;;;1.20;1.10;;;20.70;67.50;;;;;;6113275;23;95836;-47
2022/06/10 04:56:43;;;;;;;2.78;2.13;;;20.70;67.40;;;;;;6114313;23;95567;-46
2022/06/10 04:59:18;;;;;;;3.58;2.10;;;20.70;66.80;;;;;;6113669;23;95753;-48
2022/06/10 05:01:50;;;;;;;4.03;2.60;;;20.70;66.20;;;;;;6108377;23;96999;-47
2022/06/10 05:04:24;;;;;;;4.82;2.40;;;20.60;66.10;;;;;;6113240;23;95440;-51
2022/06/10 05:06:57;;;;;;;3.63;2.10;;;20.60;66.10;;;;;;6113591;23;95564;-57
2022/06/10 05:09:29;;;;;;;4.38;2.78;;;20.60;61.40;;;;;;6113033;23;95898;-45
2022/06/10 05:12:00;;;;;;;5.57;2.85;;;20.50;66.20;;;;;;6111758;23;96536;-48
2022/06/10 05:14:34;;;;;;;3.33;1.85;;;20.50;66.30;;;;;;6110087;22;95856;-69
2022/06/10 05:17:06;;;;;;;3.80;2.20;;;20.50;66.40;;;;;;6102271;23;95610;-69
2022/06/10 05:19:41;;;;;;;5.03;2.33;;;20.40;66.40;;;;;;6086111;23;95917;-70
2022/06/10 05:22:13;;;;;;;3.05;1.70;;;20.40;66.30;;;;;;6111333;23;95789;-69
2022/06/10 05:24:45;;;;;;;5.00;2.60;;;20.40;66.20;;;;;;6086599;23;95970;-70
2022/06/10 05:27:16;;;;;;;3.20;2.10;;;20.30;66.30;;;;;;6113744;23;95663;-69
2022/06/10 05:29:48;;;;;;;7.70;2.70;;;20.30;66.30;;;;;;6087940;23;95951;-69
2022/06/10 05:32:19;;;;;;;4.03;2.05;;;20.30;66.40;;;;;;6111196;23;97136;-69
2022/06/10 05:34:51;;;;;;;4.25;2.30;;;20.30;66.40;;;;;;6120285;23;95582;-69
2022/06/10 05:37:25;;;;;;;4.38;2.42;;;20.30;66.50;;;;;;6121314;23;96019;-68
2022/06/10 05:39:56;;;;;;;6.53;2.17;;;20.30;66.70;;;;;;6120481;23;95480;-69
2022/06/10 05:42:27;;;;;;;3.83;1.85;;;20.30;66.80;;;;;;6120161;23;95484;-67
2022/06/10 05:44:57;;;;;;;4.60;2.00;;;20.30;67.40;;;;;;6088979;23;96663;-67
2022/06/10 05:47:34;;;;;;;4.07;2.50;;;20.30;66.70;;;;;;6079857;23;95846;-70
2022/06/10 05:50:11;;;;;;;3.00;2.10;;;20.40;66.60;;;;;;6115404;23;95660;-69
2022/06/10 05:52:43;;;;;;;5.22;3.05;;;20.40;66.50;;;;;;6114746;23;96284;-69
2022/06/10 05:55:15;;;;;;;4.40;2.40;;;20.40;66.40;;;;;;6065024;23;97926;-70
2022/06/10 05:57:48;;;;;;;6.57;2.35;;;20.40;66.50;;;;;;6064353;23;95324;-68
2022/06/10 06:00:25;;;;;;;3.72;2.55;;;20.40;66.40;;;;;;6103568;23;97025;-69
2022/06/10 06:02:59;;;;;;;5.75;3.17;;;20.40;66.40;;;;;;6087737;23;96416;-69
2022/06/10 06:05:31;;;;;;;6.13;3.10;;;20.40;66.30;;;;;;6112133;23;95689;-68
2022/06/10 06:08:04;;;;;;;6.68;2.63;;;20.30;66.20;;;;;;6087163;23;95520;-68
2022/06/10 06:10:36;;;;;;;6.53;2.97;;;20.30;66.20;;;;;;6111822;23;95564;-68
2022/06/10 06:13:10;;;;;;;4.68;2.50;;;20.20;66.30;;;;;;6112247;23;96768;-72
2022/06/10 06:15:41;;;;;;;5.90;2.97;;;20.20;66.30;;;;;;6070685;23;97308;-68
2022/06/10 06:18:13;;;;;;;5.35;2.83;;;20.20;66.30;;;;;;6086309;23;95360;-68
2022/06/10 06:20:44;;;;;;;6.03;2.22;;;20.20;66.20;;;;;;6112053;23;95565;-68
2022/06/10 06:23:16;;;;;;;6.07;3.22;;;20.20;66.30;;;;;;6112874;23;95789;-67
2022/06/10 06:25:48;;;;;;;5.70;2.90;;;20.10;66.20;;;;;;6110765;23;95777;-68
2022/06/10 06:28:19;;;;;;;8.27;3.45;;;20.00;66.20;;;;;;6087017;23;95852;-68
2022/06/10 06:30:51;;;;;;;8.77;4.82;;;20.00;66.60;;;;;;6076661;23;95862;-68
2022/06/10 06:33:23;;;;;;;8.10;3.75;;;20.00;66.70;;;;;;6113801;23;95771;-68
2022/06/10 06:35:56;;;;;;;10.15;4.57;;;20.10;64.50;;;;;;6113147;23;95773;-67
2022/06/10 06:38:29;;;;;;;10.18;4.43;;;20.00;66.80;;;;;;6113401;23;95509;-67
2022/06/10 06:41:01;;;;;;;8.57;4.40;;;20.00;66.80;;;;;;6086089;23;95594;-68
2022/06/10 06:43:32;;;;;;;9.05;4.80;;;20.00;66.90;;;;;;6111939;23;96620;-69
2022/06/10 06:46:04;;;;;;;9.50;5.72;;;20.00;67.10;;;;;;6104484;23;95695;-69
2022/06/10 06:48:37;;;;;;;9.88;4.68;;;20.00;67.10;;;;;;6088434;23;95605;-69
2022/06/10 06:51:09;;;;;;;11.55;5.05;;;20.00;67.70;;;;;;6089453;23;95623;-68
2022/06/10 06:53:43;;;;;;;7.63;5.28;;;20.00;67.00;;;;;;6088579;23;96028;-69
2022/06/10 06:56:14;;;;;;;11.95;5.63;;;19.90;66.90;;;;;;6088558;23;95938;-68
2022/06/10 06:58:46;;;;;;;12.43;5.32;;;19.90;67.00;;;;;;6110760;23;96076;-68
2022/06/10 07:01:21;;;;;;;13.68;6.53;;;19.80;67.00;;;;;;6052886;23;95833;-68
2022/06/10 07:03:52;;;;;;;10.43;5.80;;;19.80;66.80;;;;;;6112743;23;95776;-68
2022/06/10 07:06:24;;;;;;;12.02;6.35;;;19.70;62.20;;;;;;6113547;23;95243;-68
2022/06/10 07:09:02;;;;;;;14.57;6.22;;;19.60;67.30;;;;;;6086088;23;95121;-68
2022/06/10 07:11:35;;;;;;;13.00;6.85;;;19.50;67.40;;;;;;6113912;23;95841;-67
2022/06/10 07:14:14;;;;;;;16.55;7.68;;;19.40;67.50;;;;;;6118149;22;95772;-67
2022/06/10 07:16:45;;;;;;;11.55;6.97;;;19.30;67.70;;;;;;6106807;22;95716;-67
2022/06/10 07:19:15;;;;;;;10.27;5.80;;;19.20;67.80;;;;;;6143399;22;95770;-69
2022/06/10 07:21:47;;;;;;;14.07;7.77;;;19.20;68.00;;;;;;6143467;22;95430;-67
2022/06/10 07:24:25;;;;;;;12.40;6.43;;;19.10;68.00;;;;;;6142217;22;96502;-68
2022/06/10 07:27:00;;;;;;;16.35;6.43;;;19.10;68.10;;;;;;6143042;22;95865;-68
2022/06/10 07:29:41;;;;;;;10.65;5.32;;;19.00;68.40;;;;;;6118889;22;95802;-69
2022/06/10 07:32:12;;;;;;;10.35;5.82;;;19.00;68.60;;;;;;6133480;22;96228;-69
2022/06/10 07:34:43;;;;;;;11.05;5.78;;;19.00;68.50;;;;;;6141191;22;96160;-69
2022/06/10 07:37:15;;;;;;;9.35;5.18;;;19.10;68.50;;;;;;6116623;22;97145;-69
2022/06/10 07:39:45;;;;;;;;;;;19.00;68.50;;;;;;6118462;22;95724;-69
2022/06/10 07:42:16;;;;;;;9.23;4.90;;;19.00;68.50;;;;;;6145750;22;95162;-68
2022/06/10 07:44:45;;;;;;;;;;;19.10;68.50;;;;;;6116926;22;98049;-69
2022/06/10 07:47:17;;;;;;;10.15;6.03;;;19.00;68.50;;;;;;6136881;22;95533;-69
2022/06/10 07:49:48;;;;;;;11.82;5.93;;;19.00;68.60;;;;;;6144741;22;95790;-69
2022/06/10 07:52:20;;;;;;;12.25;5.68;;;19.00;69.20;;;;;;6145455;22;95781;-69
2022/06/10 07:54:52;;;;;;;;;;;19.00;68.50;;;;;;6146041;22;96690;-68
2022/06/10 07:57:23;;;;;;;8.10;5.22;;;19.00;68.50;;;;;;6145580;22;95600;-68
2022/06/10 07:59:57;;;;;;;;;;;19.00;68.60;;;;;;6117245;22;96268;-69
2022/06/10 08:02:29;;;;;;;7.82;5.22;;;19.00;68.60;;;;;;6114236;22;95561;-68
2022/06/10 08:05:02;;;;;;;8.93;5.15;;;19.00;68.60;;;;;;6144677;22;96504;-69
2022/06/10 08:07:33;;;;;;;9.25;5.85;;;19.00;68.50;;;;;;6143319;22;95858;-68
2022/06/10 08:10:07;;;;;;;11.95;6.43;;;19.00;68.60;;;;;;6147638;22;95670;-68
2022/06/10 08:12:40;;;;;;;9.30;5.50;;;19.00;68.70;;;;;;6143748;22;95467;-68
2022/06/10 08:15:12;;;;;;;9.32;5.75;;;19.00;68.60;;;;;;6113766;22;97083;-69
2022/06/10 08:17:44;;;;;;;9.07;5.75;;;19.00;68.70;;;;;;6104729;22;95780;-68
2022/06/10 08:23:30;;;;;;;8.00;5.15;;;18.90;68.70;;;;;;6143691;22;95574;-69
2022/06/10 08:26:06;;;;;;;8.43;4.80;;;18.90;68.60;;;;;;6143717;22;95771;-68
2022/06/10 08:28:40;;;;;;;11.88;5.57;;;18.90;68.60;;;;;;6117073;22;95232;-68
2022/06/10 08:31:12;;;;;;;11.40;6.15;;;18.90;68.60;;;;;;6105587;22;97799;-69
2022/06/10 08:33:46;;;;;;;9.32;5.20;;;18.90;68.60;;;;;;6143870;22;95484;-68
2022/06/10 08:36:17;;;;;;;11.07;6.55;;;18.80;68.50;;;;;;6143841;22;96315;-69
2022/06/10 08:38:54;;;;;;;12.93;7.38;;;18.90;68.70;;;;;;6143070;22;95585;-68
2022/06/10 08:41:30;;;;;;;12.50;5.90;;;19.00;60.50;;;;;;6143590;22;95669;-68
2022/06/10 08:44:30;;;;;;;12.32;7.35;;;18.80;68.50;;;;;;6116773;22;95593;-68
2022/06/10 08:47:27;;;;;;;11.68;6.57;;;18.80;68.60;;;;;;6134304;22;95967;-69
2022/06/10 08:50:27;;;;;;;10.38;5.75;;;18.80;68.60;;;;;;6142350;22;95668;-68
2022/06/10 08:53:12;;;;;;;9.82;6.80;;;18.80;68.60;;;;;;6118278;22;95718;-68
2022/06/10 08:56:07;;;;;;;14.80;8.00;;;18.80;68.70;;;;;;6148034;22;96047;-69
2022/06/10 08:59:27;;;;;;;9.65;6.45;;;18.80;68.40;;;;;;6121158;22;95747;-68
2022/06/10 09:02:13;;;;;;;12.02;6.93;;;18.80;68.40;;;;;;6050296;23;97755;-69
2022/06/10 09:05:03;;;;;;;13.95;7.10;;;18.70;68.40;;;;;;6090081;23;95870;-68
2022/06/10 09:08:06;;;;;;;11.05;6.90;;;18.70;68.50;;;;;;6091535;23;95263;-68
2022/06/10 09:10:54;;;;;;;12.70;7.43;;;18.70;68.50;;;;;;6070919;23;95879;-68
2022/06/10 09:13:50;;;;;;;12.30;8.13;;;18.60;68.50;;;;;;6066038;23;96058;-66
2022/06/10 09:16:35;;;;;;;13.65;8.05;;;18.60;68.60;;;;;;6081668;23;95423;-66
2022/06/10 09:19:16;;;;;;;15.60;8.05;;;18.50;68.70;;;;;;6059893;23;95734;-66
2022/06/10 09:21:56;;;;;;;;;;;18.50;69.30;;;;;;6083604;23;96643;-66
2022/06/10 09:24:34;;;;;;;15.48;7.57;;;18.50;68.80;;;;;;6084698;23;95656;-66
2022/06/10 09:27:20;;;;;;;15.85;7.93;;;18.40;68.90;;;;;;6059108;23;96177;-66
2022/06/10 09:29:53;;;;;;;14.05;7.55;;;18.40;68.90;;;;;;6035627;23;95524;-66
2022/06/10 09:32:51;;;;;;;11.73;7.13;;;18.40;68.90;;;;;;6050808;23;97764;-66
2022/06/10 09:35:51;;;;;;;13.20;7.18;;;18.40;69.00;;;;;;6097733;22;95718;-66
2022/06/10 09:38:35;;;;;;;11.65;7.20;;;18.30;69.00;;;;;;6147024;22;95588;-66
2022/06/10 09:41:06;;;;;;;11.35;7.07;;;18.30;69.00;;;;;;6146908;22;95475;-66
2022/06/10 09:43:51;;;;;;;12.95;7.45;;;18.30;69.10;;;;;;6118930;22;98181;-66
2022/06/10 09:46:39;;;;;;;12.00;7.22;;;18.20;69.10;;;;;;6138470;22;96118;-66
2022/06/10 09:49:29;;;;;;;11.57;6.80;;;18.20;69.10;;;;;;6147644;22;95482;-67
2022/06/10 09:52:21;;;;;;;11.10;7.17;;;18.20;69.20;;;;;;6122765;22;95751;-67
2022/06/10 09:55:07;;;;;;;13.52;7.60;;;18.20;69.20;;;;;;6147339;22;95868;-67
2022/06/10 09:57:57;;;;;;;12.63;7.32;;;18.20;69.30;;;;;;6147362;22;95381;-67
2022/06/10 10:01:13;;;;;;;14.63;8.60;;;18.10;69.30;;;;;;6116075;22;97257;-67
2022/06/10 10:04:15;;;;;;;19.05;8.93;;;18.10;69.40;;;;;;6120126;22;95713;-68
2022/06/10 10:07:10;;;;;;;14.43;8.68;;;18.10;65.20;;;;;;6147609;22;95987;-67
2022/06/10 10:09:54;;;;;;;15.25;8.93;;;18.00;69.50;;;;;;6123270;22;95389;-68
2022/06/10 10:12:44;;;;;;;17.23;8.30;;;18.00;69.50;;;;;;6146511;22;95371;-67
2022/06/10 10:15:36;;;;;;;17.80;9.63;;;18.00;69.60;;;;;;6138851;22;95798;-67
2022/06/10 10:18:08;;;;;;;16.40;9.05;;;18.00;69.60;;;;;;6146144;22;102209;-68
2022/06/10 10:21:00;;;;;;;16.10;9.38;;;18.00;69.70;;;;;;6120142;22;95908;-67
2022/06/10 10:23:34;;;;;;;13.70;7.75;;;17.90;69.70;;;;;;6147033;22;95842;-67
2022/06/10 10:26:11;;;;;;;14.77;8.77;;;17.90;69.70;;;;;;6121399;22;95698;-67
2022/06/10 10:28:44;;;;;;;14.10;7.85;;;17.90;69.70;;;;;;6146600;22;95953;-67
2022/06/10 10:31:24;;;;;;;15.02;7.78;;;17.80;69.70;;;;;;6110363;22;95695;-67
2022/06/10 10:34:04;;;;;;;13.95;8.15;;;17.90;69.80;;;;;;6146805;22;95547;-67
2022/06/10 10:36:50;;;;;;;16.55;8.32;;;17.80;69.70;;;;;;6146399;22;95573;-67
2022/06/10 10:39:32;;;;;;;16.10;8.20;;;17.80;69.80;;;;;;6146178;22;95822;-67
2022/06/10 10:42:22;;;;;;;16.30;8.93;;;17.80;69.80;;;;;;6146143;22;95523;-67
2022/06/10 10:45:15;;;;;;;14.23;7.93;;;17.70;69.90;;;;;;6120176;22;95534;-67
2022/06/10 10:48:16;;;;;;;13.50;8.30;;;17.70;69.80;;;;;;6121957;22;95464;-67
2022/06/10 10:51:04;;;;;;;16.27;8.25;;;17.70;69.90;;;;;;6147307;22;96241;-67
2022/06/10 10:53:54;;;;;;;13.98;8.13;;;17.70;69.90;;;;;;6119327;22;97550;-67
2022/06/10 10:56:36;;;;;;;12.88;7.60;;;17.70;69.90;;;;;;6147387;22;95925;-67
2022/06/10 10:59:22;;;;;;;15.63;7.82;;;17.60;69.90;;;;;;6146639;22;95659;-67
2022/06/10 11:01:54;;;;;;;14.15;8.88;;;17.60;69.90;;;;;;6111355;22;95891;-68
2022/06/10 11:04:35;;;;;;;17.42;8.55;;;17.60;69.90;;;;;;6153349;22;96164;-67
2022/06/10 11:07:21;;;;;;;16.83;8.40;;;17.60;70.00;;;;;;6120695;22;95860;-67
2022/06/10 11:10:17;;;;;;;14.80;6.95;;;17.50;70.00;;;;;;6148199;22;95499;-67
2022/06/10 11:12:50;;;;;;;13.77;7.63;;;17.50;70.00;;;;;;6147209;22;95872;-67
2022/06/10 11:15:29;;;;;;;12.65;7.80;;;17.50;70.10;;;;;;6139938;22;95989;-67
2022/06/10 11:18:05;;;;;;;11.27;8.02;;;17.50;70.10;;;;;;6146434;22;95546;-67
2022/06/10 11:20:37;;;;;;;18.67;8.88;;;17.50;70.20;;;;;;6147247;22;96258;-67
2022/06/10 11:23:24;;;;;;;12.05;7.88;;;17.40;70.20;;;;;;6146046;22;95785;-67
2022/06/10 11:26:11;;;;;;;13.55;7.57;;;17.40;70.20;;;;;;6118995;22;95618;-67
2022/06/10 11:28:44;;;;;;;16.42;8.68;;;17.40;70.20;;;;;;6120633;22;95721;-66
2022/06/10 11:31:21;;;;;;;14.50;8.00;;;17.40;70.30;;;;;;6137821;22;95558;-67
2022/06/10 11:33:57;;;;;;;17.65;9.80;;;17.40;70.30;;;;;;6120034;22;96215;-67
2022/06/10 11:36:45;;;;;;;16.42;9.65;;;17.40;68.80;;;;;;6129959;22;95790;-70
2022/06/10 11:39:17;;;;;;;20.95;10.35;;;17.40;71.00;;;;;;6115321;22;96134;-70
2022/06/10 11:41:59;;;;;;;21.25;10.98;;;17.40;70.80;;;;;;6113982;22;95679;-71
2022/06/10 11:44:32;;;;;;;21.08;11.25;;;17.40;71.00;;;;;;6141445;22;97030;-71
2022/06/10 11:47:05;;;;;;;18.95;11.05;;;17.40;71.00;;;;;;6106305;22;96217;-70
2022/06/10 11:49:56;;;;;;;17.27;10.20;;;17.40;70.90;;;;;;6091872;22;95113;-70
2022/06/10 11:52:36;;;;;;;20.50;10.95;;;17.40;70.90;;;;;;6116291;22;95987;-70
2022/06/10 11:55:21;;;;;;;17.83;10.07;;;17.40;70.80;;;;;;6141536;22;96935;-72
2022/06/10 12:00:53;;;;;;;15.93;9.15;;;17.40;70.60;;;;;;6133060;22;95346;-70
2022/06/10 12:03:47;;;;;;;18.42;10.15;;;17.40;70.60;;;;;;6143043;22;96148;-70
2022/06/10 12:06:33;;;;;;;18.52;10.70;;;17.40;70.50;;;;;;6115014;22;96050;-70
2022/06/10 12:09:09;;;;;;;15.77;9.43;;;17.40;70.40;;;;;;6142004;22;95659;-70
2022/06/10 12:11:53;;;;;;;14.73;8.27;;;17.40;70.40;;;;;;6142022;22;95076;-70
2022/06/10 12:14:37;;;;;;;12.77;8.82;;;17.50;70.40;;;;;;6116619;22;95620;-70
2022/06/10 12:17:19;;;;;;;14.65;8.93;;;17.40;70.30;;;;;;6107521;22;96654;-70
2022/06/10 12:20:32;;;;;;;15.07;8.98;;;17.40;70.30;;;;;;6142184;22;95705;-70
2022/06/10 12:23:25;;;;;;;13.60;8.00;;;17.40;70.20;;;;;;6142804;22;95702;-70
2022/06/10 12:26:30;;;;;;;15.50;8.00;;;17.50;70.20;;;;;;6115973;22;96193;-70
2022/06/10 12:29:18;;;;;;;12.70;7.20;;;17.50;70.20;;;;;;6115039;22;96136;-70
2022/06/10 12:32:13;;;;;;;14.48;7.80;;;17.50;70.20;;;;;;6105982;22;95618;-70
2022/06/10 12:34:58;;;;;;;13.40;7.55;;;17.50;70.10;;;;;;6141894;22;95932;-70
2022/06/10 12:37:49;;;;;;;13.65;7.78;;;17.50;70.00;;;;;;6116851;22;95204;-70
2022/06/10 12:40:32;;;;;;;14.63;7.75;;;17.50;70.00;;;;;;6142889;22;95904;-70
2022/06/10 12:43:29;;;;;;;12.38;7.68;;;17.50;70.00;;;;;;6147908;22;95691;-70
2022/06/10 12:46:17;;;;;;;11.88;7.40;;;17.50;70.20;;;;;;6116048;22;97730;-70
2022/06/10 12:48:49;;;;;;;11.07;6.60;;;17.50;70.50;;;;;;6153554;22;95414;-70
2022/06/10 12:51:43;;;;;;;11.63;7.88;;;17.60;70.80;;;;;;6156412;22;95221;-69
2022/06/10 12:54:24;;;;;;;13.30;7.93;;;17.70;71.00;;;;;;6155831;22;95191;-70
2022/06/10 12:57:35;;;;;;;14.77;8.40;;;17.80;71.00;;;;;;6156169;22;94891;-71
2022/06/10 13:00:35;;;;;;;10.33;7.00;;;17.80;71.00;;;;;;6126562;22;95334;-68
2022/06/10 13:03:15;;;;;;;9.55;6.63;;;18.00;70.90;;;;;;6151700;22;102177;-68
2022/06/10 13:05:48;;;;;;;8.82;5.93;;;18.10;70.70;;;;;;6148819;22;96216;-68
2022/06/10 13:08:48;;;;;;;12.00;6.80;;;18.20;70.40;;;;;;6122209;22;95806;-69
2022/06/10 13:11:41;;;;;;;7.88;5.43;;;18.40;70.30;;;;;;6149157;22;95433;-69
2022/06/10 13:14:23;;;;;;;9.98;5.43;;;18.50;70.10;;;;;;6147531;22;95845;-68
2022/06/10 13:17:05;;;;;;;8.23;5.93;;;18.60;69.80;;;;;;6112536;22;95680;-69
2022/06/10 13:19:40;;;;;;;7.97;5.93;;;18.60;69.70;;;;;;6121042;22;95898;-69
2022/06/10 13:22:21;;;;;;;7.40;4.88;;;18.70;69.60;;;;;;6149027;22;96583;-67
2022/06/10 13:24:55;;;;;;;8.70;5.40;;;18.80;69.60;;;;;;6122486;22;95083;-67
2022/06/10 13:27:40;;;;;;;6.88;4.53;;;18.90;69.60;;;;;;6147618;22;95610;-67
2022/06/10 13:30:17;;;;;;;8.23;5.07;;;18.90;69.50;;;;;;6140369;22;95091;-67
2022/06/10 13:32:56;;;;;;;8.07;4.80;;;19.00;69.40;;;;;;6120717;22;96101;-67
2022/06/10 13:35:35;;;;;;;6.75;4.72;;;19.00;69.30;;;;;;6145614;22;95894;-67
2022/06/10 13:38:20;;;;;;;5.57;4.43;;;19.00;69.90;;;;;;6147525;22;95154;-67
2022/06/10 13:41:48;;;;;;;6.00;4.50;;;19.10;69.20;;;;;;6120667;22;96004;-68
2022/06/10 13:43:50;;;;;;;6.32;3.90;;;19.20;69.20;;;;;;6120739;22;95677;-67
2022/06/10 13:46:30;;;;;;;6.32;4.30;;;19.20;69.10;;;;;;6141076;22;95933;-67
2022/06/10 13:49:15;;;;;;;5.13;3.97;;;19.20;69.10;;;;;;6151778;22;95908;-67
2022/06/10 13:51:52;;;;;;;6.35;4.43;;;19.30;69.10;;;;;;6150255;22;95442;-67
2022/06/10 13:54:29;;;;;;;7.47;4.95;;;19.40;69.00;;;;;;6150922;22;95650;-66
2022/06/10 13:57:17;;;;;;;6.20;4.40;;;19.40;68.90;;;;;;6124980;22;96288;-68
2022/06/10 14:00:02;;;;;;;8.05;4.25;;;19.40;69.00;;;;;;6123458;22;96541;-68